createdAt,value
2023-03-13T00:00:03.167Z,997.84
2023-03-13T00:01:02.758Z,997.84
2023-03-13T00:02:02.544Z,997.85
2023-03-13T00:03:02.773Z,997.84
2023-03-13T00:04:02.973Z,997.83
2023-03-13T00:05:02.787Z,997.84
2023-03-13T00:06:02.676Z,997.76
2023-03-13T00:07:03.263Z,997.79
2023-03-13T00:08:02.650Z,997.78
2023-03-13T00:09:03.085Z,997.76
2023-03-13T00:10:02.697Z,997.71
2023-03-13T00:11:02.922Z,997.69
2023-03-13T00:12:02.341Z,997.70
2023-03-13T00:13:01.937Z,997.68
2023-03-13T00:14:01.976Z,997.65
2023-03-13T00:15:02.058Z,997.66
2023-03-13T00:16:02.378Z,997.61
2023-03-13T00:17:02.896Z,997.59
2023-03-13T00:18:02.600Z,997.55
2023-03-13T00:19:02.662Z,997.52
2023-03-13T00:20:02.335Z,997.52
2023-03-13T00:21:02.341Z,997.54
2023-03-13T00:22:02.737Z,997.48
2023-03-13T00:23:03.235Z,997.48
2023-03-13T00:24:02.930Z,997.44
2023-03-13T00:25:03.249Z,997.42
2023-03-13T00:26:03.212Z,997.33
2023-03-13T00:27:02.166Z,997.36
2023-03-13T00:28:02.533Z,997.38
2023-03-13T00:29:02.114Z,997.30
2023-03-13T00:30:02.722Z,997.33
2023-03-13T00:31:02.533Z,997.22
2023-03-13T00:32:02.758Z,997.20
2023-03-13T00:33:03.168Z,997.24
2023-03-13T00:34:03.008Z,997.22
2023-03-13T00:35:02.902Z,997.17
2023-03-13T00:36:02.767Z,997.14
2023-03-13T00:37:02.821Z,997.11
2023-03-13T00:38:02.556Z,997.10
2023-03-13T00:39:02.307Z,997.07
2023-03-13T00:40:02.785Z,997.00
2023-03-13T00:41:02.412Z,996.99
2023-03-13T00:42:02.914Z,996.96
2023-03-13T00:43:02.718Z,997.01
2023-03-13T00:44:03.027Z,997.02
2023-03-13T00:45:02.734Z,996.98
2023-03-13T00:46:02.784Z,996.93
2023-03-13T00:47:03.200Z,996.88
2023-03-13T00:48:03.280Z,996.88
2023-03-13T00:49:02.849Z,996.83
2023-03-13T00:50:02.898Z,996.75
2023-03-13T00:51:03.205Z,996.77
2023-03-13T00:52:02.154Z,996.71
2023-03-13T00:53:02.138Z,996.65
2023-03-13T00:54:02.012Z,996.61
2023-03-13T00:55:02.398Z,996.61
2023-03-13T00:56:02.135Z,996.51
2023-03-13T00:57:02.652Z,996.46
2023-03-13T00:58:02.370Z,996.41
2023-03-13T00:59:02.644Z,996.43
2023-03-13T01:00:02.965Z,996.37
2023-03-13T01:01:02.334Z,996.35
2023-03-13T01:02:02.522Z,996.32
2023-03-13T01:03:02.326Z,996.37
2023-03-13T01:04:01.988Z,996.31
2023-03-13T01:05:02.237Z,996.27
2023-03-13T01:06:02.226Z,996.26
2023-03-13T01:07:02.979Z,996.21
2023-03-13T01:08:02.947Z,996.19
2023-03-13T01:09:02.417Z,996.22
2023-03-13T01:10:02.886Z,996.19
2023-03-13T01:11:02.826Z,996.22
2023-03-13T01:12:02.837Z,996.21
2023-03-13T01:13:03.335Z,996.20
2023-03-13T01:14:02.939Z,996.22
2023-03-13T01:15:02.717Z,996.17
2023-03-13T01:16:02.752Z,996.15
2023-03-13T01:17:02.003Z,996.11
2023-03-13T01:18:02.029Z,996.10
2023-03-13T01:19:02.215Z,996.06
2023-03-13T01:20:02.549Z,996.08
2023-03-13T01:21:02.279Z,996.09
2023-03-13T01:22:02.394Z,996.11
2023-03-13T01:23:02.690Z,996.07
2023-03-13T01:24:03.051Z,995.99
2023-03-13T01:25:02.518Z,996.04
2023-03-13T01:26:02.477Z,996.00
2023-03-13T01:27:02.949Z,995.96
2023-03-13T01:28:03.151Z,995.93
2023-03-13T01:29:02.967Z,995.92
2023-03-13T01:30:03.201Z,995.97
2023-03-13T01:31:02.684Z,995.94
2023-03-13T01:32:01.974Z,995.92
2023-03-13T01:33:02.070Z,995.91
2023-03-13T01:34:02.055Z,995.84
2023-03-13T01:35:01.996Z,995.79
2023-03-13T01:36:02.497Z,995.73
2023-03-13T01:37:02.223Z,995.65
2023-03-13T01:38:02.186Z,995.75
2023-03-13T01:39:02.041Z,995.74
2023-03-13T01:40:02.173Z,995.66
2023-03-13T01:41:02.005Z,995.70
2023-03-13T01:42:02.995Z,995.65
2023-03-13T01:43:02.574Z,995.67
2023-03-13T01:44:03.233Z,995.65
2023-03-13T01:45:03.098Z,995.71
2023-03-13T01:46:02.960Z,995.70
2023-03-13T01:47:02.043Z,995.65
2023-03-13T01:48:02.140Z,995.64
2023-03-13T01:49:02.048Z,995.56
2023-03-13T01:50:02.218Z,995.61
2023-03-13T01:51:02.438Z,995.61
2023-03-13T01:52:02.585Z,995.55
2023-03-13T01:53:02.460Z,995.53
2023-03-13T01:54:03.122Z,995.53
2023-03-13T01:55:02.649Z,995.43
2023-03-13T01:56:02.900Z,995.41
2023-03-13T01:57:01.857Z,995.49
2023-03-13T01:58:01.917Z,995.49
2023-03-13T01:59:02.372Z,995.42
2023-03-13T02:00:02.431Z,995.45
2023-03-13T02:01:02.009Z,995.42
2023-03-13T02:02:03.248Z,995.40
2023-03-13T02:03:03.388Z,995.35
2023-03-13T02:04:03.474Z,995.34
2023-03-13T02:05:03.628Z,995.32
2023-03-13T02:06:02.958Z,995.24
2023-03-13T02:07:03.079Z,995.21
2023-03-13T02:08:03.617Z,995.20
2023-03-13T02:09:03.512Z,995.19
2023-03-13T02:10:03.123Z,995.14
2023-03-13T02:11:03.561Z,995.11
2023-03-13T02:12:02.867Z,995.14
2023-03-13T02:13:02.728Z,995.05
2023-03-13T02:14:02.811Z,994.98
2023-03-13T02:15:02.902Z,995.01
2023-03-13T02:16:02.609Z,994.90
2023-03-13T02:17:02.830Z,994.93
2023-03-13T02:18:02.789Z,994.92
2023-03-13T02:19:02.948Z,994.90
2023-03-13T02:20:02.458Z,994.84
2023-03-13T02:21:02.985Z,994.84
2023-03-13T02:22:02.657Z,994.72
2023-03-13T02:23:03.061Z,994.76
2023-03-13T02:24:02.859Z,994.74
2023-03-13T02:25:02.946Z,994.78
2023-03-13T02:26:02.630Z,994.76
2023-03-13T02:27:03.022Z,994.66
2023-03-13T02:28:02.506Z,994.67
2023-03-13T02:29:02.975Z,994.71
2023-03-13T02:30:02.728Z,994.65
2023-03-13T02:31:03.185Z,994.63
2023-03-13T02:32:03.176Z,994.57
2023-03-13T02:33:03.490Z,994.52
2023-03-13T02:34:02.895Z,994.46
2023-03-13T02:35:03.285Z,994.46
2023-03-13T02:36:03.014Z,994.40
2023-03-13T02:37:03.562Z,994.39
2023-03-13T02:38:03.005Z,994.38
2023-03-13T02:39:03.060Z,994.31
2023-03-13T02:40:03.483Z,994.29
2023-03-13T02:41:03.062Z,994.41
2023-03-13T02:42:03.159Z,994.41
2023-03-13T02:43:03.203Z,994.40
2023-03-13T02:44:02.717Z,994.40
2023-03-13T02:45:02.810Z,994.37
2023-03-13T02:46:03.288Z,994.46
2023-03-13T02:47:03.839Z,994.42
2023-03-13T02:48:03.500Z,994.35
2023-03-13T02:49:03.293Z,994.37
2023-03-13T02:50:03.346Z,994.39
2023-03-13T02:51:03.417Z,994.42
2023-03-13T02:52:02.615Z,994.31
2023-03-13T02:53:02.445Z,994.36
2023-03-13T02:54:02.862Z,994.22
2023-03-13T02:55:02.763Z,994.22
2023-03-13T02:56:02.590Z,994.25
2023-03-13T02:57:03.005Z,994.21
2023-03-13T02:58:02.851Z,994.26
2023-03-13T02:59:02.818Z,994.21
2023-03-13T03:00:02.802Z,994.25
2023-03-13T03:01:02.559Z,994.25
2023-03-13T03:02:02.001Z,994.18
2023-03-13T03:03:02.226Z,994.24
2023-03-13T03:04:02.234Z,994.17
2023-03-13T03:05:02.312Z,994.17
2023-03-13T03:06:02.009Z,994.14
2023-03-13T03:07:02.666Z,994.11
2023-03-13T03:08:02.923Z,994.07
2023-03-13T03:09:02.398Z,994.01
2023-03-13T03:10:02.967Z,994.06
2023-03-13T03:11:02.970Z,994.08
2023-03-13T03:12:03.122Z,994.03
2023-03-13T03:13:02.506Z,994.07
2023-03-13T03:14:02.768Z,994.04
2023-03-13T03:15:02.480Z,994.05
2023-03-13T03:16:02.757Z,994.02
2023-03-13T03:17:03.077Z,994.04
2023-03-13T03:18:02.924Z,994.08
2023-03-13T03:19:03.237Z,994.12
2023-03-13T03:20:03.067Z,993.95
2023-03-13T03:21:02.982Z,994.05
2023-03-13T03:22:01.687Z,994.03
2023-03-13T03:23:02.286Z,994.02
2023-03-13T03:24:01.758Z,993.96
2023-03-13T03:25:02.168Z,993.92
2023-03-13T03:26:01.962Z,993.89
2023-03-13T03:27:01.877Z,993.83
2023-03-13T03:28:01.947Z,993.76
2023-03-13T03:29:02.220Z,993.88
2023-03-13T03:30:02.160Z,993.82
2023-03-13T03:31:02.128Z,993.86
2023-03-13T03:32:02.633Z,993.88
2023-03-13T03:33:02.619Z,993.84
2023-03-13T03:34:02.865Z,993.85
2023-03-13T03:35:02.676Z,993.81
2023-03-13T03:36:03.066Z,993.80
2023-03-13T03:37:02.194Z,993.73
2023-03-13T03:38:02.670Z,993.73
2023-03-13T03:39:02.702Z,993.68
2023-03-13T03:40:02.719Z,993.75
2023-03-13T03:41:02.250Z,993.77
2023-03-13T03:42:02.327Z,993.83
2023-03-13T03:43:02.787Z,993.80
2023-03-13T03:44:02.552Z,993.83
2023-03-13T03:45:02.686Z,993.78
2023-03-13T03:46:02.310Z,993.84
2023-03-13T03:47:02.721Z,993.91
2023-03-13T03:48:02.668Z,993.92
2023-03-13T03:49:02.847Z,993.91
2023-03-13T03:50:02.570Z,993.89
2023-03-13T03:51:03.006Z,993.91
2023-03-13T03:52:01.801Z,993.87
2023-03-13T03:53:02.029Z,993.91
2023-03-13T03:54:01.776Z,993.90
2023-03-13T03:55:01.619Z,993.86
2023-03-13T03:56:01.723Z,993.89
2023-03-13T03:57:02.066Z,993.90
2023-03-13T03:58:02.379Z,993.88
2023-03-13T03:59:02.054Z,993.91
2023-03-13T04:00:02.602Z,993.91
2023-03-13T04:01:02.179Z,993.87
2023-03-13T04:02:02.644Z,993.87
2023-03-13T04:03:02.975Z,993.84
2023-03-13T04:04:02.527Z,993.86
2023-03-13T04:05:02.997Z,993.84
2023-03-13T04:06:03.114Z,993.75
2023-03-13T04:07:03.156Z,993.67
2023-03-13T04:08:03.567Z,993.71
2023-03-13T04:09:03.636Z,993.74
2023-03-13T04:10:03.123Z,993.70
2023-03-13T04:11:03.095Z,993.66
2023-03-13T04:12:02.597Z,993.58
2023-03-13T04:13:02.884Z,993.65
2023-03-13T04:14:02.416Z,993.67
2023-03-13T04:15:02.885Z,993.65
2023-03-13T04:16:02.457Z,993.64
2023-03-13T04:17:02.965Z,993.66
2023-03-13T04:18:02.985Z,993.69
2023-03-13T04:19:02.621Z,993.68
2023-03-13T04:20:03.034Z,993.60
2023-03-13T04:21:02.715Z,993.46
2023-03-13T04:22:03.098Z,993.47
2023-03-13T04:23:02.846Z,993.60
2023-03-13T04:24:03.234Z,993.40
2023-03-13T04:25:03.146Z,993.43
2023-03-13T04:26:03.402Z,993.48
2023-03-13T04:27:03.551Z,993.35
2023-03-13T04:28:04.153Z,993.39
2023-03-13T04:29:03.568Z,993.47
2023-03-13T04:30:03.871Z,993.41
2023-03-13T04:31:03.696Z,993.36
2023-03-13T04:32:02.704Z,993.36
2023-03-13T04:33:02.454Z,993.29
2023-03-13T04:34:02.852Z,993.29
2023-03-13T04:35:02.617Z,993.24
2023-03-13T04:36:02.456Z,993.19
2023-03-13T04:37:02.897Z,993.24
2023-03-13T04:38:02.615Z,993.30
2023-03-13T04:39:02.910Z,993.23
2023-03-13T04:40:03.200Z,993.25
2023-03-13T04:41:02.637Z,993.23
2023-03-13T04:42:02.986Z,993.20
2023-03-13T04:43:02.709Z,993.18
2023-03-13T04:44:03.000Z,993.18
2023-03-13T04:45:03.379Z,993.10
2023-03-13T04:46:02.930Z,993.06
2023-03-13T04:47:03.233Z,993.11
2023-03-13T04:48:03.054Z,993.12
2023-03-13T04:49:03.442Z,993.18
2023-03-13T04:50:03.216Z,993.11
2023-03-13T04:51:03.503Z,993.11
2023-03-13T04:52:02.875Z,993.14
2023-03-13T04:53:02.662Z,993.13
2023-03-13T04:54:02.946Z,993.07
2023-03-13T04:55:02.681Z,993.20
2023-03-13T04:56:03.153Z,993.10
2023-03-13T04:57:03.352Z,993.22
2023-03-13T04:58:03.075Z,993.22
2023-03-13T04:59:03.367Z,993.26
2023-03-13T05:00:03.130Z,993.29
2023-03-13T05:01:03.097Z,993.22
2023-03-13T05:02:02.547Z,993.17
2023-03-13T05:03:02.301Z,993.19
2023-03-13T05:04:02.774Z,993.21
2023-03-13T05:05:02.843Z,993.15
2023-03-13T05:06:02.336Z,993.12
2023-03-13T05:07:02.809Z,993.01
2023-03-13T05:08:03.016Z,993.05
2023-03-13T05:09:02.528Z,993.06
2023-03-13T05:10:02.822Z,992.99
2023-03-13T05:11:02.539Z,992.96
2023-03-13T05:12:02.967Z,992.94
2023-03-13T05:13:02.747Z,992.94
2023-03-13T05:14:03.200Z,992.91
2023-03-13T05:15:02.700Z,992.90
2023-03-13T05:16:03.267Z,992.88
2023-03-13T05:17:03.254Z,992.86
2023-03-13T05:18:03.052Z,992.78
2023-03-13T05:19:03.420Z,992.71
2023-03-13T05:20:03.071Z,992.68
2023-03-13T05:21:02.855Z,992.68
2023-03-13T05:22:02.406Z,992.75
2023-03-13T05:23:02.100Z,992.76
2023-03-13T05:24:02.441Z,992.77
2023-03-13T05:25:02.216Z,992.72
2023-03-13T05:26:01.938Z,992.69
2023-03-13T05:27:03.015Z,992.68
2023-03-13T05:28:02.819Z,992.66
2023-03-13T05:29:03.360Z,992.76
2023-03-13T05:30:02.878Z,992.71
2023-03-13T05:31:02.689Z,992.59
2023-03-13T05:32:03.009Z,992.54
2023-03-13T05:33:02.808Z,992.58
2023-03-13T05:34:02.616Z,992.73
2023-03-13T05:35:03.184Z,992.72
2023-03-13T05:36:02.855Z,992.72
2023-03-13T05:37:03.277Z,992.72
2023-03-13T05:38:02.847Z,992.80
2023-03-13T05:39:03.287Z,992.79
2023-03-13T05:40:03.038Z,992.78
2023-03-13T05:41:02.869Z,992.82
2023-03-13T05:42:02.961Z,992.80
2023-03-13T05:43:02.635Z,992.76
2023-03-13T05:44:02.964Z,992.68
2023-03-13T05:45:02.825Z,992.68
2023-03-13T05:46:02.671Z,992.61
2023-03-13T05:47:04.181Z,992.66
2023-03-13T05:48:02.955Z,992.69
2023-03-13T05:49:03.339Z,992.64
2023-03-13T05:50:03.153Z,992.60
2023-03-13T05:51:02.987Z,992.62
2023-03-13T05:52:02.535Z,992.68
2023-03-13T05:53:02.061Z,992.64
2023-03-13T05:54:02.011Z,992.58
2023-03-13T05:55:02.512Z,992.63
2023-03-13T05:56:02.071Z,992.54
2023-03-13T05:57:02.509Z,992.64
2023-03-13T05:58:02.452Z,992.61
2023-03-13T05:59:01.971Z,992.56
2023-03-13T06:00:02.164Z,992.60
2023-03-13T06:01:01.997Z,992.59
2023-03-13T06:02:03.074Z,992.62
2023-03-13T06:03:02.832Z,992.59
2023-03-13T06:04:02.859Z,992.54
2023-03-13T06:05:02.820Z,992.54
2023-03-13T06:06:02.819Z,992.56
2023-03-13T06:07:01.849Z,992.50
2023-03-13T06:08:02.291Z,992.47
2023-03-13T06:09:02.281Z,992.47
2023-03-13T06:10:01.817Z,992.49
2023-03-13T06:11:01.699Z,992.50
2023-03-13T06:12:02.215Z,992.52
2023-03-13T06:13:17.222Z,992.53
2023-03-13T06:14:02.616Z,992.58
2023-03-13T06:15:02.503Z,992.56
2023-03-13T06:16:02.615Z,992.61
2023-03-13T06:17:01.710Z,992.62
2023-03-13T06:18:01.632Z,992.58
2023-03-13T06:19:02.121Z,992.63
2023-03-13T06:20:01.879Z,992.63
2023-03-13T06:21:01.724Z,992.68
2023-03-13T06:22:02.249Z,992.66
2023-03-13T06:23:02.811Z,992.72
2023-03-13T06:24:02.372Z,992.79
2023-03-13T06:25:02.243Z,992.78
2023-03-13T06:26:02.832Z,992.72
2023-03-13T06:27:02.440Z,992.71
2023-03-13T06:28:02.897Z,992.66
2023-03-13T06:29:02.873Z,992.60
2023-03-13T06:30:02.893Z,992.57
2023-03-13T06:31:02.732Z,992.52
2023-03-13T06:32:02.753Z,992.54
2023-03-13T06:33:02.732Z,992.49
2023-03-13T06:34:02.711Z,992.40
2023-03-13T06:35:02.752Z,992.42
2023-03-13T06:36:02.701Z,992.34
2023-03-13T06:37:02.574Z,992.36
2023-03-13T06:38:02.520Z,992.28
2023-03-13T06:39:02.813Z,992.35
2023-03-13T06:40:02.729Z,992.28
2023-03-13T06:41:02.561Z,992.30
2023-03-13T06:42:02.068Z,992.33
2023-03-13T06:43:02.636Z,992.50
2023-03-13T06:44:02.302Z,992.55
2023-03-13T06:45:02.433Z,992.58
2023-03-13T06:46:02.234Z,992.62
2023-03-13T06:47:01.889Z,992.56
2023-03-13T06:48:01.798Z,992.60
2023-03-13T06:49:01.640Z,992.59
2023-03-13T06:50:02.201Z,992.67
2023-03-13T06:51:01.748Z,992.79
2023-03-13T06:52:02.338Z,992.71
2023-03-13T06:53:02.132Z,992.78
2023-03-13T06:54:02.710Z,992.80
2023-03-13T06:55:02.340Z,992.85
2023-03-13T06:56:02.169Z,992.91
2023-03-13T06:57:02.634Z,992.88
2023-03-13T06:58:02.636Z,992.95
2023-03-13T06:59:03.067Z,993.00
2023-03-13T07:00:02.640Z,993.04
2023-03-13T07:01:02.624Z,993.07
2023-03-13T07:02:03.097Z,993.05
2023-03-13T07:03:02.942Z,993.12
2023-03-13T07:04:03.600Z,993.14
2023-03-13T07:05:03.293Z,993.08
2023-03-13T07:06:03.086Z,993.10
2023-03-13T07:07:02.660Z,993.11
2023-03-13T07:08:02.990Z,993.16
2023-03-13T07:09:02.873Z,993.11
2023-03-13T07:10:02.681Z,993.16
2023-03-13T07:11:02.642Z,993.10
2023-03-13T07:12:03.304Z,993.09
2023-03-13T07:13:03.155Z,993.11
2023-03-13T07:14:15.812Z,993.13
2023-03-13T07:15:03.559Z,993.14
2023-03-13T07:16:03.205Z,993.15
2023-03-13T07:17:02.714Z,993.22
2023-03-13T07:18:02.545Z,993.17
2023-03-13T07:19:02.644Z,993.15
2023-03-13T07:20:03.093Z,993.17
2023-03-13T07:21:02.883Z,993.17
2023-03-13T07:22:03.338Z,993.20
2023-03-13T07:23:03.151Z,993.18
2023-03-13T07:24:03.709Z,993.11
2023-03-13T07:25:03.153Z,993.07
2023-03-13T07:26:03.372Z,993.13
2023-03-13T07:27:07.585Z,993.13
2023-03-13T07:28:02.708Z,993.21
2023-03-13T07:29:02.551Z,993.18
2023-03-13T07:30:02.732Z,993.15
2023-03-13T07:31:02.972Z,993.14
2023-03-13T07:32:03.654Z,993.14
2023-03-13T07:33:03.436Z,993.11
2023-03-13T07:34:03.113Z,993.14
2023-03-13T07:35:03.598Z,993.13
2023-03-13T07:36:03.306Z,993.12
2023-03-13T07:37:02.781Z,993.17
2023-03-13T07:38:02.674Z,993.12
2023-03-13T07:39:02.562Z,993.06
2023-03-13T07:40:02.469Z,993.12
2023-03-13T07:41:02.885Z,993.08
2023-03-13T07:42:03.216Z,993.14
2023-03-13T07:43:03.394Z,993.14
2023-03-13T07:44:03.063Z,993.18
2023-03-13T07:45:02.806Z,993.11
2023-03-13T07:46:03.541Z,993.15
2023-03-13T07:47:03.241Z,993.13
2023-03-13T07:48:02.989Z,993.15
2023-03-13T07:49:03.448Z,993.14
2023-03-13T07:50:03.083Z,993.15
2023-03-13T07:51:02.971Z,993.09
2023-03-13T07:52:03.534Z,993.21
2023-03-13T07:53:03.482Z,993.18
2023-03-13T07:54:03.565Z,993.11
2023-03-13T07:55:03.674Z,993.11
2023-03-13T07:56:03.329Z,993.09
2023-03-13T07:57:03.006Z,993.04
2023-03-13T07:58:02.993Z,993.03
2023-03-13T07:59:02.603Z,992.96
2023-03-13T08:00:03.259Z,992.92
2023-03-13T08:01:02.922Z,992.84
2023-03-13T08:02:02.580Z,992.84
2023-03-13T08:03:02.324Z,992.82
2023-03-13T08:04:02.537Z,992.76
2023-03-13T08:05:02.353Z,992.77
2023-03-13T08:06:02.386Z,992.75
2023-03-13T08:07:02.877Z,992.66
2023-03-13T08:08:02.647Z,992.68
2023-03-13T08:09:02.964Z,992.69
2023-03-13T08:10:02.938Z,992.69
2023-03-13T08:11:02.636Z,992.67
2023-03-13T08:12:02.608Z,992.69
2023-03-13T08:13:02.202Z,992.71
2023-03-13T08:14:02.095Z,992.64
2023-03-13T08:15:02.467Z,992.65
2023-03-13T08:16:02.232Z,992.63
2023-03-13T08:17:02.769Z,992.63
2023-03-13T08:18:02.804Z,992.63
2023-03-13T08:19:02.419Z,992.64
2023-03-13T08:20:02.417Z,992.60
2023-03-13T08:21:02.585Z,992.63
2023-03-13T08:22:03.215Z,992.67
2023-03-13T08:23:02.961Z,992.58
2023-03-13T08:24:02.872Z,992.66
2023-03-13T08:25:02.757Z,992.67
2023-03-13T08:26:03.047Z,992.64
2023-03-13T08:27:03.377Z,992.66
2023-03-13T08:28:03.491Z,992.64
2023-03-13T08:29:03.126Z,992.64
2023-03-13T08:30:03.509Z,992.59
2023-03-13T08:31:02.878Z,992.63
2023-03-13T08:32:03.157Z,992.67
2023-03-13T08:33:03.089Z,992.66
2023-03-13T08:34:02.766Z,992.69
2023-03-13T08:35:02.769Z,992.75
2023-03-13T08:36:02.650Z,992.73
2023-03-13T08:37:02.907Z,992.71
2023-03-13T08:38:02.833Z,992.68
2023-03-13T08:39:02.630Z,992.67
2023-03-13T08:40:02.492Z,992.63
2023-03-13T08:41:02.409Z,992.58
2023-03-13T08:42:03.332Z,992.63
2023-03-13T08:43:03.129Z,992.58
2023-03-13T08:44:03.457Z,992.56
2023-03-13T08:45:03.350Z,992.49
2023-03-13T08:46:03.244Z,992.53
2023-03-13T08:47:02.298Z,992.44
2023-03-13T08:48:02.479Z,992.53
2023-03-13T08:49:02.432Z,992.52
2023-03-13T08:50:02.935Z,992.42
2023-03-13T08:51:02.370Z,992.43
2023-03-13T08:52:02.932Z,992.53
2023-03-13T08:53:03.486Z,992.54
2023-03-13T08:54:03.385Z,992.51
2023-03-13T08:55:03.012Z,992.48
2023-03-13T08:56:03.222Z,992.49
2023-03-13T08:57:03.613Z,992.55
2023-03-13T08:58:03.276Z,992.51
2023-03-13T08:59:03.064Z,992.45
2023-03-13T09:00:03.629Z,992.51
2023-03-13T09:01:03.233Z,992.43
2023-03-13T09:02:03.134Z,992.50
2023-03-13T09:03:03.539Z,992.54
2023-03-13T09:04:04.749Z,992.55
2023-03-13T09:05:03.261Z,992.58
2023-03-13T09:06:03.617Z,992.63
2023-03-13T09:07:03.257Z,992.60
2023-03-13T09:08:03.355Z,992.47
2023-03-13T09:09:03.860Z,992.47
2023-03-13T09:10:03.900Z,992.45
2023-03-13T09:11:03.316Z,992.41
2023-03-13T09:12:02.832Z,992.42
2023-03-13T09:13:03.336Z,992.40
2023-03-13T09:14:02.711Z,992.46
2023-03-13T09:15:02.909Z,992.48
2023-03-13T09:16:02.892Z,992.47
2023-03-13T09:17:03.333Z,992.46
2023-03-13T09:18:03.309Z,992.48
2023-03-13T09:19:03.515Z,992.51
2023-03-13T09:20:03.475Z,992.47
2023-03-13T09:21:03.752Z,992.43
2023-03-13T09:22:02.585Z,992.51
2023-03-13T09:23:03.019Z,992.52
2023-03-13T09:24:02.536Z,992.51
2023-03-13T09:25:02.734Z,992.51
2023-03-13T09:26:02.946Z,992.46
2023-03-13T09:27:02.841Z,992.44
2023-03-13T09:28:02.712Z,992.43
2023-03-13T09:29:03.121Z,992.43
2023-03-13T09:30:02.721Z,992.43
2023-03-13T09:31:03.065Z,992.42
2023-03-13T09:32:02.827Z,992.35
2023-03-13T09:33:02.919Z,992.42
2023-03-13T09:34:02.803Z,992.38
2023-03-13T09:35:03.157Z,992.36
2023-03-13T09:36:03.303Z,992.39
2023-03-13T09:37:03.109Z,992.41
2023-03-13T09:38:03.587Z,992.45
2023-03-13T09:39:03.058Z,992.38
2023-03-13T09:40:03.559Z,992.42
2023-03-13T09:41:06.316Z,992.44
2023-03-13T09:42:03.351Z,992.48
2023-03-13T09:43:03.424Z,992.43
2023-03-13T09:44:03.850Z,992.37
2023-03-13T09:45:03.475Z,992.38
2023-03-13T09:46:03.276Z,992.38
2023-03-13T09:47:03.099Z,992.31
2023-03-13T09:48:03.308Z,992.36
2023-03-13T09:49:03.393Z,992.40
2023-03-13T09:50:03.281Z,992.39
2023-03-13T09:51:03.154Z,992.39
2023-03-13T09:52:03.649Z,992.41
2023-03-13T09:53:03.365Z,992.34
2023-03-13T09:54:03.287Z,992.39
2023-03-13T09:55:03.358Z,992.36
2023-03-13T09:56:03.817Z,992.32
2023-03-13T09:57:03.618Z,992.30
2023-03-13T09:58:03.677Z,992.33
2023-03-13T09:59:03.674Z,992.34
2023-03-13T10:00:03.820Z,992.26
2023-03-13T10:01:03.735Z,992.23
2023-03-13T10:02:02.269Z,992.20
2023-03-13T10:03:02.161Z,992.29
2023-03-13T10:04:02.088Z,992.21
2023-03-13T10:05:01.949Z,992.17
2023-03-13T10:06:02.049Z,992.17
2023-03-13T10:07:02.513Z,992.13
2023-03-13T10:08:02.358Z,992.16
2023-03-13T10:09:02.754Z,992.19
2023-03-13T10:10:02.372Z,992.16
2023-03-13T10:11:02.220Z,992.12
2023-03-13T10:12:02.757Z,992.12
2023-03-13T10:13:02.614Z,992.13
2023-03-13T10:14:02.491Z,992.12
2023-03-13T10:15:03.153Z,992.08
2023-03-13T10:16:03.008Z,992.13
2023-03-13T10:17:02.817Z,992.11
2023-03-13T10:18:02.706Z,992.13
2023-03-13T10:19:02.479Z,992.12
2023-03-13T10:20:02.953Z,992.06
2023-03-13T10:21:02.632Z,992.07
2023-03-13T10:22:02.117Z,992.07
2023-03-13T10:23:01.815Z,992.09
2023-03-13T10:24:02.341Z,992.05
2023-03-13T10:25:01.743Z,992.03
2023-03-13T10:26:02.085Z,991.99
2023-03-13T10:27:02.480Z,992.00
2023-03-13T10:28:02.348Z,992.02
2023-03-13T10:29:02.129Z,991.97
2023-03-13T10:30:02.659Z,991.98
2023-03-13T10:31:02.519Z,991.96
2023-03-13T10:32:02.837Z,991.92
2023-03-13T10:33:02.695Z,991.97
2023-03-13T10:34:02.533Z,991.94
2023-03-13T10:35:02.649Z,991.92
2023-03-13T10:36:02.956Z,991.94
2023-03-13T10:37:02.371Z,991.95
2023-03-13T10:38:01.990Z,991.92
2023-03-13T10:39:02.192Z,991.89
2023-03-13T10:40:02.191Z,991.90
2023-03-13T10:41:01.954Z,991.88
2023-03-13T10:42:02.473Z,991.87
2023-03-13T10:43:02.333Z,991.85
2023-03-13T10:44:02.211Z,991.80
2023-03-13T10:45:02.279Z,991.81
2023-03-13T10:46:02.225Z,991.82
2023-03-13T10:47:02.826Z,991.80
2023-03-13T10:48:02.505Z,991.65
2023-03-13T10:49:02.533Z,991.71
2023-03-13T10:50:02.453Z,991.71
2023-03-13T10:51:02.562Z,991.68
2023-03-13T10:52:02.721Z,991.59
2023-03-13T10:53:03.135Z,991.59
2023-03-13T10:54:02.736Z,991.59
2023-03-13T10:55:02.541Z,991.58
2023-03-13T10:56:02.391Z,991.57
2023-03-13T10:57:02.827Z,991.60
2023-03-13T10:58:02.634Z,991.63
2023-03-13T10:59:02.825Z,991.61
2023-03-13T11:00:04.237Z,991.60
2023-03-13T11:01:02.577Z,991.57
2023-03-13T11:02:03.144Z,991.53
2023-03-13T11:03:03.319Z,991.51
2023-03-13T11:04:03.061Z,991.52
2023-03-13T11:05:02.789Z,991.52
2023-03-13T11:06:02.636Z,991.49
2023-03-13T11:07:03.552Z,991.45
2023-03-13T11:08:03.412Z,991.41
2023-03-13T11:09:03.209Z,991.39
2023-03-13T11:10:03.564Z,991.43
2023-03-13T11:11:03.412Z,991.44
2023-03-13T11:12:02.977Z,991.45
2023-03-13T11:13:02.634Z,991.41
2023-03-13T11:14:02.486Z,991.41
2023-03-13T11:15:03.072Z,991.39
2023-03-13T11:16:02.678Z,991.42
2023-03-13T11:17:03.180Z,991.38
2023-03-13T11:18:03.180Z,991.37
2023-03-13T11:19:02.791Z,991.35
2023-03-13T11:20:02.740Z,991.37
2023-03-13T11:21:15.934Z,991.37
2023-03-13T11:22:03.323Z,991.39
2023-03-13T11:23:02.917Z,991.35
2023-03-13T11:24:03.130Z,991.33
2023-03-13T11:25:03.289Z,991.28
2023-03-13T11:26:02.992Z,991.28
2023-03-13T11:27:05.124Z,991.21
2023-03-13T11:28:03.436Z,991.18
2023-03-13T11:29:03.235Z,991.18
2023-03-13T11:30:03.155Z,991.12
2023-03-13T11:31:03.605Z,991.05
2023-03-13T11:32:04.799Z,991.06
2023-03-13T11:33:03.444Z,991.07
2023-03-13T11:34:03.230Z,991.03
2023-03-13T11:35:03.690Z,990.92
2023-03-13T11:36:03.346Z,990.95
2023-03-13T11:37:03.926Z,990.93
2023-03-13T11:38:03.824Z,990.87
2023-03-13T11:39:03.566Z,990.78
2023-03-13T11:40:03.701Z,990.81
2023-03-13T11:41:04.093Z,990.76
2023-03-13T11:42:03.323Z,990.83
2023-03-13T11:43:14.268Z,990.71
2023-03-13T11:44:02.796Z,990.70
2023-03-13T11:45:03.237Z,990.69
2023-03-13T11:46:03.272Z,990.67
2023-03-13T11:47:03.622Z,990.54
2023-03-13T11:48:03.175Z,990.52
2023-03-13T11:49:03.055Z,990.62
2023-03-13T11:50:03.125Z,990.57
2023-03-13T11:51:03.220Z,990.46
2023-03-13T11:52:03.829Z,990.41
2023-03-13T11:53:03.553Z,990.42
2023-03-13T11:54:05.239Z,990.40
2023-03-13T11:55:03.392Z,990.46
2023-03-13T11:56:03.796Z,990.43
2023-03-13T11:57:03.254Z,990.35
2023-03-13T11:58:03.045Z,990.34
2023-03-13T11:59:02.972Z,990.23
2023-03-13T12:00:02.849Z,990.20
2023-03-13T12:01:03.371Z,990.19
2023-03-13T12:02:01.952Z,990.26
2023-03-13T12:03:02.239Z,990.29
2023-03-13T12:04:02.125Z,990.24
2023-03-13T12:05:02.081Z,990.33
2023-03-13T12:06:02.557Z,990.35
2023-03-13T12:07:04.612Z,990.16
2023-03-13T12:08:02.701Z,990.21
2023-03-13T12:09:02.437Z,990.24
2023-03-13T12:10:02.347Z,990.17
2023-03-13T12:11:02.827Z,990.25
2023-03-13T12:12:02.638Z,990.17
2023-03-13T12:13:02.251Z,990.24
2023-03-13T12:14:01.895Z,990.24
2023-03-13T12:15:01.835Z,990.22
2023-03-13T12:16:01.768Z,990.24
2023-03-13T12:17:01.660Z,990.13
2023-03-13T12:18:02.171Z,990.22
2023-03-13T12:19:02.064Z,990.15
2023-03-13T12:20:02.109Z,990.17
2023-03-13T12:21:01.971Z,990.20
2023-03-13T12:22:02.135Z,990.06
2023-03-13T12:23:02.599Z,990.15
2023-03-13T12:24:02.675Z,990.12
2023-03-13T12:25:04.474Z,990.21
2023-03-13T12:26:02.380Z,990.10
2023-03-13T12:27:02.272Z,990.22
2023-03-13T12:28:02.906Z,990.15